Time;durP1;ratioP1;P1;durP2;ratioP2;P2;SDS_P1;SDS_P2;PMS_P1;PMS_P2;Temp;Humidity;BMP_temperature;BMP_pressure;BME280_temperature;BME280_humidity;BME280_pressure;Samples;Min_cycle;Max_cycle;Signal;HPM_P1;HPM_P2
2022/05/24 00:01:23;;;;;;;;;;;13.30;99.90;;;;;;5075274;28;19931;-68
2022/05/24 00:03:49;;;;;;;;;;;13.20;99.90;;;;;;5076700;28;20021;-70
2022/05/24 00:06:15;;;;;;;;;;;13.10;99.90;;;;;;5079999;28;19928;-70
2022/05/24 00:08:41;;;;;;;;;;;13.20;99.90;;;;;;5082257;28;19920;-69
2022/05/24 00:11:06;;;;;;;;;;;13.00;99.90;;;;;;5114576;27;20001;-71
2022/05/24 00:13:32;;;;;;;;;;;13.10;99.90;;;;;;5109207;27;19999;-68
2022/05/24 00:15:57;;;;;;;;;;;13.10;99.90;;;;;;5073201;28;19924;-69
2022/05/24 00:18:24;;;;;;;;;;;13.20;99.90;;;;;;5072560;28;20020;-72
2022/05/24 00:20:51;;;;;;;;;;;13.20;99.90;;;;;;5080497;28;19920;-67
2022/05/24 00:23:17;;;;;;;;;;;13.20;99.90;;;;;;5075858;28;19924;-69
2022/05/24 00:25:44;;;;;;;;;;;13.30;99.90;;;;;;5080484;28;19932;-68
2022/05/24 00:28:10;;;;;;;;;;;13.20;99.90;;;;;;5110759;27;19923;-69
2022/05/24 00:30:37;;;;;;;;;;;13.30;99.90;;;;;;5073468;28;20276;-70
2022/05/24 00:33:03;;;;;;;;;;;13.40;99.90;;;;;;5080878;28;20003;-69
2022/05/24 00:35:28;;;;;;;;;;;13.30;99.90;;;;;;5076552;28;19920;-67
2022/05/24 00:37:54;;;;;;;;;;;13.10;99.90;;;;;;5079000;28;19927;-69
2022/05/24 00:40:23;;;;;;;;;;;13.20;99.90;;;;;;5080757;28;20007;-71
2022/05/24 00:42:49;;;;;;;;;;;13.10;99.90;;;;;;5107516;27;19924;-69
2022/05/24 00:45:21;;;;;;;;;;;13.10;99.90;;;;;;5075413;28;19943;-68
2022/05/24 00:47:51;;;;;;;;;;;12.90;99.90;;;;;;5078859;28;19982;-69
2022/05/24 00:50:19;;;;;;;;;;;12.90;99.90;;;;;;5081137;28;19920;-68
2022/05/24 00:52:54;;;;;;;;;;;12.80;99.90;;;;;;5079297;28;20110;-69
2022/05/24 00:55:22;;;;;;;;;;;12.70;99.90;;;;;;5078058;28;19920;-69
2022/05/24 00:57:56;;;;;;;;;;;12.70;99.90;;;;;;5079220;28;19920;-71
2022/05/24 01:00:22;;;;;;;;;;;12.70;99.90;;;;;;5084328;28;19939;-71
2022/05/24 01:02:48;;;;;;;;;;;12.80;99.90;;;;;;5076543;28;19925;-70
2022/05/24 01:05:19;;;;;;;;;;;12.80;99.90;;;;;;5077187;28;19920;-70
2022/05/24 01:07:45;;;;;;;;;;;12.60;99.90;;;;;;5071501;28;19924;-70
2022/05/24 01:10:12;;;;;;;;;;;12.60;99.90;;;;;;5063149;28;20386;-70
2022/05/24 01:12:42;;;;;;;;;;;12.60;99.90;;;;;;5082074;28;19927;-70
2022/05/24 01:15:08;;;;;;;;;;;12.80;99.90;;;;;;5070990;28;21191;-69
2022/05/24 01:17:34;;;;;;;;;;;12.80;99.90;;;;;;5096304;28;19940;-69
2022/05/24 01:20:00;;;;;;;;;;;12.70;99.90;;;;;;5077532;28;20385;-69
2022/05/24 01:22:45;;;;;;;;;;;12.80;99.90;;;;;;5074251;28;19939;-67
2022/05/24 01:25:10;;;;;;;;;;;12.70;99.90;;;;;;5075960;28;20383;-70
2022/05/24 01:27:36;;;;;;;;;;;12.80;99.90;;;;;;5079359;28;19971;-70
2022/05/24 01:30:06;;;;;;;;;;;12.80;99.90;;;;;;5082051;28;20018;-69
2022/05/24 01:38:02;;;;;;;;;;;12.80;99.90;;;;;;5077153;28;19974;-70
2022/05/24 01:40:28;;;;;;;;;;;12.80;99.90;;;;;;5078150;28;21279;-70
2022/05/24 01:42:54;;;;;;;;;;;12.90;99.90;;;;;;5077443;28;20346;-70
2022/05/24 01:45:28;;;;;;;;;;;13.00;99.90;;;;;;5080281;28;19927;-71
2022/05/24 01:47:56;;;;;;;;;;;12.80;99.90;;;;;;5111412;28;20284;-70
2022/05/24 01:50:22;;;;;;;;;;;12.90;99.90;;;;;;5076359;28;19931;-72
2022/05/24 01:52:55;;;;;;;;;;;12.80;99.90;;;;;;5078292;28;20058;-71
2022/05/24 01:55:28;;;;;;;;;;;12.80;99.90;;;;;;5104721;28;19924;-70
2022/05/24 01:57:56;;;;;;;;;;;12.90;99.90;;;;;;5107760;28;20049;-71
2022/05/24 02:00:22;;;;;;;;;;;12.90;99.90;;;;;;5108834;28;20596;-70
2022/05/24 02:02:47;;;;;;;;;;;12.90;99.90;;;;;;5107395;28;19962;-71
2022/05/24 02:05:13;;;;;;;;;;;12.90;99.90;;;;;;5107354;28;19970;-71
2022/05/24 02:07:39;;;;;;;;;;;13.20;99.90;;;;;;5079307;28;20275;-69
2022/05/24 02:10:05;;;;;;;;;;;13.20;99.90;;;;;;5077505;28;19921;-70
2022/05/24 02:12:32;;;;;;;;;;;13.20;99.90;;;;;;5075229;28;19928;-71
2022/05/24 02:15:01;;;;;;;;;;;13.10;99.90;;;;;;5080517;28;20388;-71
2022/05/24 02:17:28;;;;;;;;;;;13.00;99.90;;;;;;5074433;28;19920;-71
2022/05/24 02:19:54;;;;;;;;;;;13.00;99.90;;;;;;5073996;28;19950;-71
2022/05/24 02:22:22;;;;;;;;;;;13.10;99.90;;;;;;5111054;27;19936;-73
2022/05/24 02:25:17;;;;;;;;;;;13.10;99.90;;;;;;5104745;27;19920;-71
2022/05/24 02:27:44;;;;;;;;;;;13.10;99.90;;;;;;5066326;28;20000;-71
2022/05/24 02:30:14;;;;;;;;;;;13.10;99.90;;;;;;5112382;27;19920;-73
2022/05/24 02:32:40;;;;;;;;;;;13.10;99.90;;;;;;5078613;28;20019;-71
2022/05/24 02:35:06;;;;;;;;;;;13.30;99.90;;;;;;5084585;28;20026;-71
2022/05/24 02:37:31;;;;;;;;;;;13.20;99.90;;;;;;5085383;28;19931;-71
2022/05/24 02:42:41;;;;;;;;;;;13.40;99.90;;;;;;5113560;27;20381;-72
2022/05/24 02:45:07;;;;;;;;;;;13.20;99.90;;;;;;5065195;28;19920;-70
2022/05/24 02:47:32;;;;;;;;;;;13.40;99.90;;;;;;5081256;28;20398;-71
2022/05/24 02:49:57;;;;;;;;;;;13.30;99.90;;;;;;5083877;28;19934;-72
2022/05/24 02:52:23;;;;;;;;;;;13.20;99.90;;;;;;5078136;28;19981;-71
2022/05/24 02:54:48;;;;;;;;;;;13.40;99.90;;;;;;5077771;28;19920;-70
2022/05/24 02:57:14;;;;;;;;;;;13.20;99.90;;;;;;5080195;28;20341;-70
2022/05/24 02:59:39;;;;;;;;;;;13.50;99.90;;;;;;5061064;28;19920;-72
2022/05/24 03:02:05;;;;;;;;;;;13.20;99.90;;;;;;5074937;28;19924;-71
2022/05/24 03:04:31;;;;;;;;;;;13.30;99.90;;;;;;5079827;28;19931;-71
2022/05/24 03:09:41;;;;;;;;;;;13.30;99.90;;;;;;5080917;28;19970;-70
2022/05/24 03:14:52;;;;;;;;;;;13.30;99.90;;;;;;5086916;28;19927;-69
2022/05/24 03:17:18;;;;;;;;;;;13.50;99.90;;;;;;5078584;28;19967;-72
2022/05/24 03:19:43;;;;;;;;;;;13.50;99.90;;;;;;5077484;28;19963;-69
2022/05/24 03:22:09;;;;;;;;;;;13.30;99.90;;;;;;5083625;28;20000;-72
2022/05/24 03:24:35;;;;;;;;;;;13.50;99.90;;;;;;5085447;28;19924;-70
2022/05/24 03:27:01;;;;;;;;;;;13.50;99.90;;;;;;5081240;28;20034;-72
2022/05/24 03:29:26;;;;;;;;;;;13.40;99.90;;;;;;5081625;28;19987;-69
2022/05/24 03:31:52;;;;;;;;;;;13.40;99.90;;;;;;5081498;28;19924;-70
2022/05/24 03:34:17;;;;;;;;;;;13.50;99.90;;;;;;5076197;28;19928;-73
2022/05/24 03:36:43;;;;;;;;;;;13.30;99.90;;;;;;5110722;27;19947;-71
2022/05/24 03:39:08;;;;;;;;;;;13.30;99.90;;;;;;5080167;28;19920;-73
2022/05/24 03:41:35;;;;;;;;;;;13.50;99.90;;;;;;5058895;28;19959;-70
2022/05/24 03:44:01;;;;;;;;;;;13.50;99.90;;;;;;5078940;28;19970;-71
2022/05/24 03:46:26;;;;;;;;;;;13.40;99.90;;;;;;5080177;28;19956;-71
2022/05/24 03:48:51;;;;;;;;;;;13.30;99.90;;;;;;5077600;28;19932;-70
2022/05/24 03:51:17;;;;;;;;;;;13.40;99.90;;;;;;5062124;28;19928;-69
2022/05/24 03:53:42;;;;;;;;;;;13.30;99.90;;;;;;5082142;28;19924;-72
2022/05/24 03:56:08;;;;;;;;;;;13.40;99.90;;;;;;5072111;28;19920;-70
2022/05/24 03:58:34;;;;;;;;;;;13.40;99.90;;;;;;5075375;28;19920;-72
2022/05/24 04:00:59;;;;;;;;;;;13.40;99.90;;;;;;5075226;28;20329;-69
2022/05/24 04:03:25;;;;;;;;;;;13.30;99.90;;;;;;5079596;28;19924;-70
2022/05/24 04:05:51;;;;;;;;;;;13.40;99.90;;;;;;5082155;28;19920;-68
2022/05/24 04:08:17;;;;;;;;;;;13.30;99.90;;;;;;5088949;28;20359;-71
2022/05/24 04:10:42;;;;;;;;;;;13.40;99.90;;;;;;5081502;28;20023;-73
2022/05/24 04:13:08;;;;;;;;;;;13.20;99.90;;;;;;5078210;28;20006;-73
2022/05/24 04:15:33;;;;;;;;;;;13.40;99.90;;;;;;5076145;28;20337;-69
2022/05/24 04:17:59;;;;;;;;;;;13.30;99.90;;;;;;5081286;28;19950;-73
2022/05/24 04:20:26;;;;;;;;;;;13.30;99.90;;;;;;5080441;28;20039;-70
2022/05/24 04:22:52;;;;;;;;;;;13.10;99.90;;;;;;5075773;28;19940;-74
2022/05/24 04:25:18;;;;;;;;;;;13.00;99.90;;;;;;5082229;28;19924;-76
2022/05/24 04:27:44;;;;;;;;;;;13.10;99.90;;;;;;5070772;28;19928;-74
2022/05/24 04:30:10;;;;;;;;;;;13.20;99.90;;;;;;5080344;28;19996;-72
2022/05/24 04:32:36;;;;;;;;;;;13.10;99.90;;;;;;5110446;27;19928;-71
2022/05/24 04:35:02;;;;;;;;;;;13.10;99.90;;;;;;5073237;28;19921;-70
2022/05/24 04:37:27;;;;;;;;;;;13.10;99.90;;;;;;5076694;28;19925;-70
2022/05/24 04:39:52;;;;;;;;;;;13.10;99.90;;;;;;5074830;28;19942;-69
2022/05/24 04:42:24;;;;;;;;;;;13.10;99.90;;;;;;5114467;27;20550;-70
2022/05/24 04:44:51;;;;;;;;;;;13.00;99.90;;;;;;5077557;28;19920;-69
2022/05/24 04:47:18;;;;;;;;;;;13.10;99.90;;;;;;5083019;28;20054;-74
2022/05/24 04:49:46;;;;;;;;;;;13.10;99.90;;;;;;5085682;28;19924;-75
2022/05/24 04:52:12;;;;;;;;;;;13.10;99.90;;;;;;5082334;28;19924;-74
2022/05/24 04:54:38;;;;;;;;;;;13.00;99.90;;;;;;5071287;28;19924;-78
2022/05/24 04:57:04;;;;;;;;;;;13.10;99.90;;;;;;5072729;28;19923;-72
2022/05/24 04:59:29;;;;;;;;;;;13.00;99.90;;;;;;5086482;28;19920;-75
2022/05/24 05:01:54;;;;;;;;;;;13.10;99.90;;;;;;5086343;28;19920;-76
2022/05/24 05:04:20;;;;;;;;;;;13.00;99.90;;;;;;5075229;28;19921;-72
2022/05/24 05:06:46;;;;;;;;;;;13.10;99.90;;;;;;5084593;28;19984;-70
2022/05/24 05:09:12;;;;;;;;;;;13.10;99.90;;;;;;5067997;28;19923;-74
2022/05/24 05:11:38;;;;;;;;;;;13.00;99.90;;;;;;5073827;28;19925;-72
2022/05/24 05:14:03;;;;;;;;;;;13.10;99.90;;;;;;5074271;28;19927;-76
2022/05/24 05:16:29;;;;;;;;;;;13.10;99.90;;;;;;5059861;28;20333;-73
2022/05/24 05:18:55;;;;;;;;;;;12.90;99.90;;;;;;5077090;28;19924;-75
2022/05/24 05:21:20;;;;;;;;;;;13.00;99.90;;;;;;5083875;28;19920;-71
2022/05/24 05:23:45;;;;;;;;;;;13.00;99.90;;;;;;5082288;28;19931;-73
2022/05/24 05:26:14;;;;;;;;;;;13.00;99.90;;;;;;5075594;28;20026;-73
2022/05/24 05:28:40;;;;;;;;;;;12.90;99.90;;;;;;5076268;28;19927;-75
2022/05/24 05:31:26;;;;;;;;;;;13.10;99.90;;;;;;5113578;27;19924;-74
2022/05/24 05:33:56;;;;;;;;;;;13.10;99.90;;;;;;5078284;28;19921;-73
2022/05/24 05:36:21;;;;;;;;;;;13.10;99.90;;;;;;5080947;28;19928;-76
2022/05/24 05:38:47;;;;;;;;;;;13.10;99.90;;;;;;5077561;28;19920;-76
2022/05/24 05:41:21;;;;;;;;;;;13.00;99.90;;;;;;5080262;28;20279;-74
2022/05/24 05:43:47;;;;;;;;;;;13.10;99.90;;;;;;5082976;28;19947;-77
2022/05/24 05:46:13;;;;;;;;;;;13.20;99.90;;;;;;5079616;28;19946;-76
2022/05/24 05:48:38;;;;;;;;;;;13.10;99.90;;;;;;5077209;28;20431;-74
2022/05/24 05:51:05;;;;;;;;;;;13.10;99.90;;;;;;5057731;28;20020;-74
2022/05/24 05:53:30;;;;;;;;;;;13.20;99.90;;;;;;5057814;28;20317;-72
2022/05/24 05:55:56;;;;;;;;;;;13.20;99.90;;;;;;5086739;28;19920;-72
2022/05/24 05:58:22;;;;;;;;;;;13.20;99.90;;;;;;5072305;28;19966;-71
2022/05/24 06:00:48;;;;;;;;;;;13.20;99.90;;;;;;5079667;28;20428;-75
2022/05/24 06:03:14;;;;;;;;;;;13.20;99.90;;;;;;5075110;28;19924;-76
2022/05/24 06:05:39;;;;;;;;;;;13.20;99.90;;;;;;5077795;28;19924;-70
2022/05/24 06:08:08;;;;;;;;;;;13.20;99.90;;;;;;5084342;28;19985;-69
2022/05/24 06:10:34;;;;;;;;;;;13.30;99.90;;;;;;5076944;28;19921;-73
2022/05/24 06:13:00;;;;;;;;;;;13.40;99.90;;;;;;5076906;28;20307;-71
2022/05/24 06:15:27;;;;;;;;;;;13.30;99.90;;;;;;5081374;28;19920;-77
2022/05/24 06:17:53;;;;;;;;;;;13.50;99.90;;;;;;5082795;28;20299;-75
2022/05/24 06:20:20;;;;;;;;;;;13.40;99.90;;;;;;5072658;28;19920;-70
2022/05/24 06:22:46;;;;;;;;;;;13.50;99.90;;;;;;5107940;27;20397;-75
2022/05/24 06:25:12;;;;;;;;;;;13.60;99.90;;;;;;5070677;28;20306;-73
2022/05/24 06:27:37;;;;;;;;;;;13.60;99.90;;;;;;5075177;28;19921;-72
2022/05/24 06:30:03;;;;;;;;;;;13.50;99.90;;;;;;5081992;28;20008;-70
2022/05/24 06:32:30;;;;;;;;;;;13.40;99.90;;;;;;5085697;28;19930;-77
2022/05/24 06:34:55;;;;;;;;;;;13.40;99.90;;;;;;5079295;28;19967;-71
2022/05/24 06:37:21;;;;;;;;;;;13.40;99.90;;;;;;5076659;28;20400;-76
2022/05/24 06:39:47;;;;;;;;;;;13.50;99.90;;;;;;5080505;28;20065;-74
2022/05/24 06:42:12;;;;;;;;;;;13.40;99.90;;;;;;5090020;28;20014;-75
2022/05/24 06:44:38;;;;;;;;;;;13.50;99.90;;;;;;5082326;28;19971;-72
2022/05/24 06:47:03;;;;;;;;;;;13.40;99.90;;;;;;5085426;28;19920;-71
2022/05/24 06:49:29;;;;;;;;;;;13.50;99.90;;;;;;5084636;28;19921;-75
2022/05/24 06:51:55;;;;;;;;;;;13.40;99.90;;;;;;5074842;28;19927;-67
2022/05/24 06:54:20;;;;;;;;;;;13.40;99.90;;;;;;5087525;28;19919;-74
2022/05/24 06:56:46;;;;;;;;;;;13.40;99.90;;;;;;5084817;28;19924;-77
2022/05/24 07:04:40;;;;;;;;;;;13.40;99.90;;;;;;5103295;28;20414;-77
2022/05/24 07:07:05;;;;;;;;;;;13.50;99.90;;;;;;5092184;28;19932;-75
2022/05/24 07:09:31;;;;;;;;;;;13.50;99.90;;;;;;5091330;28;19926;-77
2022/05/24 07:11:57;;;;;;;;;;;13.50;99.90;;;;;;5093107;28;19920;-78
2022/05/24 07:14:22;;;;;;;;;;;13.60;99.90;;;;;;5090519;28;19928;-74
2022/05/24 07:16:48;;;;;;;;;;;13.60;99.90;;;;;;5086442;28;19951;-72
2022/05/24 07:19:13;;;;;;;;;;;13.50;99.90;;;;;;5092089;28;19927;-75
2022/05/24 07:21:38;;;;;;;;;;;13.60;99.90;;;;;;5126834;27;19931;-73
2022/05/24 07:24:04;;;;;;;;;;;13.60;99.90;;;;;;5076293;28;19971;-75
2022/05/24 07:26:29;;;;;;;;;;;13.60;99.90;;;;;;5072365;28;19989;-75
2022/05/24 07:28:55;;;;;;;;;;;13.70;99.90;;;;;;5071700;28;19925;-74
2022/05/24 07:31:20;;;;;;;;;;;13.70;99.90;;;;;;5071708;28;19930;-74
2022/05/24 07:33:46;;;;;;;;;;;13.70;99.90;;;;;;5071523;28;20276;-79
2022/05/24 07:36:11;;;;;;;;;;;13.70;99.90;;;;;;5071950;28;19925;-72
2022/05/24 07:38:38;;;;;;;;;;;13.70;99.90;;;;;;5072493;28;19920;-76
2022/05/24 07:46:32;;;;;;;;;;;13.90;99.90;;;;;;5088876;28;20286;-77
2022/05/24 07:48:58;;;;;;;;;;;13.80;99.90;;;;;;5069231;28;19928;-78
2022/05/24 07:51:24;;;;;;;;;;;13.90;99.90;;;;;;5083597;28;19970;-75
2022/05/24 07:53:49;;;;;;;;;;;13.90;99.90;;;;;;5083993;28;19921;-75
2022/05/24 07:56:15;;;;;;;;;;;13.90;99.90;;;;;;5090184;28;19959;-72
2022/05/24 07:58:43;;;;;;;;;;;14.00;99.90;;;;;;5088441;28;19920;-78
2022/05/24 08:01:10;;;;;;;;;;;14.20;99.90;;;;;;5119184;27;20011;-76
2022/05/24 08:03:35;;;;;;;;;;;14.40;99.90;;;;;;5082066;28;19932;-73
2022/05/24 08:06:01;;;;;;;;;;;14.40;99.90;;;;;;5079123;28;20416;-75
2022/05/24 08:08:27;;;;;;;;;;;14.70;99.90;;;;;;5121427;27;19920;-76
2022/05/24 08:10:52;;;;;;;;;;;14.70;99.90;;;;;;5090947;28;19931;-76
2022/05/24 08:13:21;;;;;;;;;;;14.80;99.90;;;;;;5091826;28;19927;-79
2022/05/24 08:15:49;;;;;;;;;;;14.80;99.90;;;;;;5069093;28;20365;-77
2022/05/24 08:18:15;;;;;;;;;;;14.80;99.90;;;;;;5113906;27;19927;-72
2022/05/24 08:20:40;;;;;;;;;;;14.90;99.90;;;;;;5069410;28;20371;-75
2022/05/24 08:23:06;;;;;;;;;;;15.00;99.90;;;;;;5112190;27;20324;-75
2022/05/24 08:25:33;;;;;;;;;;;15.10;99.90;;;;;;5071585;28;19959;-75
2022/05/24 08:28:02;;;;;;;;;;;15.00;99.90;;;;;;5070964;28;19948;-73
2022/05/24 08:30:27;;;;;;;;;;;14.90;99.90;;;;;;5087824;28;19920;-70
2022/05/24 08:32:53;;;;;;;;;;;14.70;99.90;;;;;;5124979;27;20282;-68
2022/05/24 08:35:19;;;;;;;;;;;14.50;99.90;;;;;;5091654;28;19979;-75
2022/05/24 08:37:45;;;;;;;;;;;14.40;99.90;;;;;;5074218;28;19928;-69
2022/05/24 08:40:13;;;;;;;;;;;14.60;99.90;;;;;;5110831;27;19920;-75
2022/05/24 08:42:57;;;;;;;;;;;14.90;99.90;;;;;;5085942;28;19931;-73
2022/05/24 08:48:23;;;;;;;;;;;15.30;99.90;;;;;;5111361;28;19927;-77
2022/05/24 08:51:06;;;;;;;;;;;15.20;99.90;;;;;;5094050;28;19927;-74
2022/05/24 08:53:35;;;;;;;;;;;15.20;99.90;;;;;;5078264;28;19924;-77
2022/05/24 08:56:04;;;;;;;;;;;15.50;99.90;;;;;;5090781;28;19927;-74
2022/05/24 08:58:35;;;;;;;;;;;15.60;99.90;;;;;;5091154;28;19927;-78
2022/05/24 09:01:02;;;;;;;;;;;15.60;99.90;;;;;;5085558;28;20380;-74
2022/05/24 09:03:28;;;;;;;;;;;15.30;99.90;;;;;;5070476;28;19978;-73
2022/05/24 09:06:02;;;;;;;;;;;15.00;99.90;;;;;;5074681;28;20415;-73
2022/05/24 09:08:29;;;;;;;;;;;14.70;99.90;;;;;;5088018;28;19927;-74
2022/05/24 09:11:10;;;;;;;;;;;14.50;99.90;;;;;;5103290;28;19924;-75
2022/05/24 09:13:55;;;;;;;;;;;14.50;99.90;;;;;;5070135;28;19921;-74
2022/05/24 09:16:24;;;;;;;;;;;14.60;99.90;;;;;;5070504;28;20360;-77
2022/05/24 09:18:54;;;;;;;;;;;14.70;99.90;;;;;;5103498;28;19928;-76
2022/05/24 09:21:29;;;;;;;;;;;14.70;99.90;;;;;;5053924;28;20015;-77
2022/05/24 09:24:01;;;;;;;;;;;14.90;99.90;;;;;;5117923;27;20386;-76
2022/05/24 09:26:27;;;;;;;;;;;15.20;99.90;;;;;;5070347;28;19926;-76
2022/05/24 09:28:52;;;;;;;;;;;15.60;99.90;;;;;;5070427;28;20291;-72
2022/05/24 09:31:24;;;;;;;;;;;15.80;99.90;;;;;;5068900;28;19969;-75
2022/05/24 09:33:53;;;;;;;;;;;15.90;99.90;;;;;;5103376;28;19927;-72
2022/05/24 09:36:36;;;;;;;;;;;15.70;99.90;;;;;;5070730;28;19943;-74
2022/05/24 09:39:20;;;;;;;;;;;15.50;99.90;;;;;;5070303;28;19927;-68
2022/05/24 09:41:53;;;;;;;;;;;15.40;99.90;;;;;;5085151;28;20045;-77
2022/05/24 09:44:19;;;;;;;;;;;15.30;99.90;;;;;;5071318;28;19951;-69
2022/05/24 09:46:44;;;;;;;;;;;15.20;99.90;;;;;;5072732;28;19920;-74
2022/05/24 09:49:45;;;;;;;;;;;15.30;99.90;;;;;;5068781;28;19921;-71
2022/05/24 09:52:12;;;;;;;;;;;15.30;99.90;;;;;;5012052;28;20448;-73
2022/05/24 09:54:50;;;;;;;;;;;15.20;99.90;;;;;;5056434;28;19921;-73
2022/05/24 09:57:20;;;;;;;;;;;15.40;99.90;;;;;;5080273;28;19920;-74
2022/05/24 09:59:57;;;;;;;;;;;15.60;99.90;;;;;;5089735;28;19920;-75
2022/05/24 10:02:27;;;;;;;;;;;15.60;99.90;;;;;;5089580;28;20406;-81
2022/05/24 10:04:52;;;;;;;;;;;15.50;99.90;;;;;;5103019;28;19920;-76
2022/05/24 10:07:23;;;;;;;;;;;15.50;99.90;;;;;;5079889;28;19998;-78
2022/05/24 10:10:03;;;;;;;;;;;15.50;99.90;;;;;;5085030;28;19931;-74
2022/05/24 10:12:39;;;;;;;;;;;15.60;99.90;;;;;;5084181;28;19923;-76
2022/05/24 10:15:21;;;;;;;;;;;15.50;99.90;;;;;;5118839;28;19927;-72
2022/05/24 10:18:06;;;;;;;;;;;15.00;99.90;;;;;;5089095;28;19920;-74
2022/05/24 10:20:40;;;;;;;;;;;14.50;99.90;;;;;;5088773;28;19923;-73
2022/05/24 10:23:16;;;;;;;;;;;13.80;99.90;;;;;;5089673;28;19949;-73
2022/05/24 10:26:04;;;;;;;;;;;13.40;99.90;;;;;;5088757;28;19920;-74
2022/05/24 10:28:36;;;;;;;;;;;13.00;99.90;;;;;;5086754;28;19920;-72
2022/05/24 10:31:04;;;;;;;;;;;12.80;99.90;;;;;;5075501;28;20438;-76
2022/05/24 10:39:34;;;;;;;;;;;12.40;99.90;;;;;;5088785;28;19966;-69
2022/05/24 10:42:04;;;;;;;;;;;12.30;99.90;;;;;;5072464;28;19963;-71
2022/05/24 10:44:35;;;;;;;;;;;12.10;99.90;;;;;;5073907;28;19936;-73
2022/05/24 10:47:03;;;;;;;;;;;12.10;99.90;;;;;;5071867;28;19920;-71
2022/05/24 10:49:42;;;;;;;;;;;12.10;99.90;;;;;;5072784;28;20700;-69
2022/05/24 10:52:28;;;;;;;;;;;12.10;99.90;;;;;;5079839;28;19943;-71
2022/05/24 10:55:06;;;;;;;;;;;12.30;99.90;;;;;;5060886;28;19932;-72
2022/05/24 10:57:33;;;;;;;;;;;12.30;99.90;;;;;;5073885;28;19920;-72
2022/05/24 11:00:01;;;;;;;;;;;12.40;99.90;;;;;;5088532;28;19923;-72
2022/05/24 11:02:45;;;;;;;;;;;12.50;99.90;;;;;;5073104;28;19920;-71
2022/05/24 11:05:31;;;;;;;;;;;12.80;99.90;;;;;;5071658;28;19928;-72
2022/05/24 11:08:01;;;;;;;;;;;12.90;99.90;;;;;;5041656;28;19920;-71
2022/05/24 11:10:35;;;;;;;;;;;13.00;99.90;;;;;;5071688;28;20367;-73
2022/05/24 11:13:08;;;;;;;;;;;12.90;99.90;;;;;;5055891;28;19925;-70
2022/05/24 11:15:36;;;;;;;;;;;12.90;99.90;;;;;;5083776;28;20386;-72
2022/05/24 11:18:03;;;;;;;;;;;12.80;99.90;;;;;;5084604;28;19928;-71
2022/05/24 11:20:35;;;;;;;;;;;12.80;99.90;;;;;;5075272;28;20318;-75
2022/05/24 11:23:07;;;;;;;;;;;12.80;99.90;;;;;;5092263;28;19924;-72
2022/05/24 11:25:38;;;;;;;;;;;12.80;99.90;;;;;;5091719;28;20170;-72
2022/05/24 11:28:03;;;;;;;;;;;12.80;99.90;;;;;;5092178;28;19924;-77
2022/05/24 11:30:36;;;;;;;;;;;12.80;99.90;;;;;;5091901;28;20275;-74
2022/05/24 11:33:02;;;;;;;;;;;12.80;99.90;;;;;;5077538;28;20279;-75
2022/05/24 11:35:35;;;;;;;;;;;12.90;99.90;;;;;;5104908;28;22232;-76
2022/05/24 11:38:12;;;;;;;;;;;12.90;99.90;;;;;;5088564;28;19920;-75
2022/05/24 11:41:01;;;;;;;;;;;13.00;99.90;;;;;;5105429;28;19928;-74
2022/05/24 11:43:35;;;;;;;;;;;13.00;99.90;;;;;;5105883;28;20021;-74
2022/05/24 11:46:02;;;;;;;;;;;13.10;99.90;;;;;;5105811;28;19927;-74
2022/05/24 11:48:41;;;;;;;;;;;13.00;99.90;;;;;;5116549;27;20013;-76
2022/05/24 11:51:28;;;;;;;;;;;13.50;99.90;;;;;;5092097;28;20420;-75
2022/05/24 11:53:53;;;;;;;;;;;13.90;99.90;;;;;;5074435;28;20291;-71
2022/05/24 11:56:19;;;;;;;;;;;14.50;99.90;;;;;;5088691;28;19920;-73
2022/05/24 11:58:49;;;;;;;;;;;14.70;99.90;;;;;;5090991;28;20388;-74
2022/05/24 12:01:14;;;;;;;;;;;14.80;99.90;;;;;;5091550;28;19920;-76
2022/05/24 12:09:55;;;;;;;;;;;15.20;99.90;;;;;;5072757;28;19927;-72
2022/05/24 12:12:27;;;;;;;;;;;15.30;99.90;;;;;;5091846;28;20351;-72
2022/05/24 12:15:12;;;;;;;;;;;15.60;99.90;;;;;;5077741;28;20299;-69
2022/05/24 12:17:38;;;;;;;;;;;15.70;99.90;;;;;;5069360;28;19920;-71
2022/05/24 12:20:04;;;;;;;;;;;16.00;99.90;;;;;;5085026;28;19921;-72
2022/05/24 12:22:33;;;;;;;;;;;16.20;99.90;;;;;;5078046;28;19924;-73
2022/05/24 12:24:59;;;;;;;;;;;16.00;99.90;;;;;;5082603;28;19920;-76
2022/05/24 12:27:24;;;;;;;;;;;15.90;99.90;;;;;;5081718;28;19932;-72
2022/05/24 12:30:09;;;;;;;;;;;16.00;99.90;;;;;;5088224;28;19934;-74
2022/05/24 12:32:36;;;;;;;;;;;16.30;99.90;;;;;;5110940;28;19919;-74
2022/05/24 12:35:05;;;;;;;;;;;16.50;99.90;;;;;;5098882;28;20201;-71
2022/05/24 12:37:33;;;;;;;;;;;16.40;99.90;;;;;;5076293;28;19989;-76
2022/05/24 12:40:13;;;;;;;;;;;16.20;99.90;;;;;;5072055;28;19920;-76
2022/05/24 12:42:43;;;;;;;;;;;16.10;99.90;;;;;;5070319;28;19924;-72
2022/05/24 12:45:08;;;;;;;;;;;16.40;99.90;;;;;;5070051;28;19953;-76
2022/05/24 12:47:34;;;;;;;;;;;16.40;99.90;;;;;;5084660;28;19928;-76
2022/05/24 12:50:00;;;;;;;;;;;16.60;99.90;;;;;;5089963;28;19920;-75
2022/05/24 12:52:27;;;;;;;;;;;16.80;99.90;;;;;;5084849;28;19931;-71
2022/05/24 12:54:57;;;;;;;;;;;17.10;99.90;;;;;;5087724;28;20294;-73
2022/05/24 12:57:26;;;;;;;;;;;17.10;99.90;;;;;;5073610;28;20517;-74
2022/05/24 13:00:01;;;;;;;;;;;17.00;99.90;;;;;;5089034;28;19920;-74
2022/05/24 13:02:30;;;;;;;;;;;16.80;99.90;;;;;;5089039;28;19927;-75
2022/05/24 13:05:19;;;;;;;;;;;16.60;99.90;;;;;;5089539;28;19923;-72
2022/05/24 13:07:50;;;;;;;;;;;16.70;99.90;;;;;;5079342;28;20333;-74
2022/05/24 13:10:19;;;;;;;;;;;16.90;99.90;;;;;;5088887;28;20007;-75
2022/05/24 13:12:45;;;;;;;;;;;17.10;99.90;;;;;;5083557;28;19920;-73
2022/05/24 13:15:15;;;;;;;;;;;17.20;99.90;;;;;;5088390;28;19916;-71
2022/05/24 13:17:43;;;;;;;;;;;17.10;99.90;;;;;;5089464;28;19927;-72
2022/05/24 13:20:24;;;;;;;;;;;16.80;99.90;;;;;;5071519;28;19920;-69
2022/05/24 13:22:52;;;;;;;;;;;16.70;99.90;;;;;;5091098;28;19924;-73
2022/05/24 13:25:19;;;;;;;;;;;16.70;99.90;;;;;;5068908;28;20451;-73
2022/05/24 13:28:04;;;;;;;;;;;16.50;99.90;;;;;;5068944;28;20375;-74
2022/05/24 13:33:33;;;;;;;;;;;16.60;99.90;;;;;;5103452;28;20421;-74
2022/05/24 13:35:59;;;;;;;;;;;17.10;99.90;;;;;;5072604;28;20029;-70
2022/05/24 13:38:26;;;;;;;;;;;17.00;99.90;;;;;;5069097;28;19920;-75
2022/05/24 13:40:53;;;;;;;;;;;16.80;99.90;;;;;;5085291;28;19947;-72
2022/05/24 13:43:39;;;;;;;;;;;16.60;99.90;;;;;;5103303;28;19925;-77
2022/05/24 13:46:06;;;;;;;;;;;16.50;99.90;;;;;;5119257;28;19967;-73
2022/05/24 13:48:38;;;;;;;;;;;16.40;99.90;;;;;;5089227;28;19931;-75
2022/05/24 13:51:04;;;;;;;;;;;16.40;99.90;;;;;;5089682;28;19920;-74
2022/05/24 13:53:36;;;;;;;;;;;16.60;99.90;;;;;;5089707;28;19921;-79
2022/05/24 13:56:06;;;;;;;;;;;16.70;99.90;;;;;;5075189;28;19921;-69
2022/05/24 13:58:33;;;;;;;;;;;16.70;99.90;;;;;;5089696;28;19924;-72
2022/05/24 14:01:01;;;;;;;;;;;16.70;99.90;;;;;;5080642;28;19920;-74
2022/05/24 14:03:28;;;;;;;;;;;16.70;99.90;;;;;;5069762;28;20375;-76
2022/05/24 14:06:05;;;;;;;;;;;16.60;99.90;;;;;;5071045;28;20421;-74
2022/05/24 14:08:32;;;;;;;;;;;16.40;99.90;;;;;;5089376;28;19920;-70
2022/05/24 14:10:58;;;;;;;;;;;16.20;99.90;;;;;;5088508;28;19966;-73
2022/05/24 14:13:23;;;;;;;;;;;16.30;99.90;;;;;;5075888;28;19924;-74
2022/05/24 14:15:50;;;;;;;;;;;16.70;99.90;;;;;;5068397;28;20407;-73
2022/05/24 14:18:16;;;;;;;;;;;16.60;99.90;;;;;;5105385;28;19947;-73
2022/05/24 14:20:41;;;;;;;;;;;16.30;99.90;;;;;;5105931;28;19920;-70
2022/05/24 14:23:07;;;;;;;;;;;16.00;99.90;;;;;;5072182;28;19924;-70
2022/05/24 14:25:32;;;;;;;;;;;15.90;99.90;;;;;;5075778;28;19920;-76
2022/05/24 14:27:58;;;;;;;;;;;15.90;99.90;;;;;;5074873;28;19920;-71
2022/05/24 14:30:24;;;;;;;;;;;16.10;99.90;;;;;;5092616;28;19920;-74
2022/05/24 14:32:50;;;;;;;;;;;16.20;99.90;;;;;;5092637;28;19927;-76
2022/05/24 14:35:15;;;;;;;;;;;16.30;99.90;;;;;;5093245;28;19926;-75
2022/05/24 14:37:41;;;;;;;;;;;16.20;99.90;;;;;;5092617;28;19970;-73
2022/05/24 14:40:06;;;;;;;;;;;16.20;99.90;;;;;;5092387;28;19928;-74
2022/05/24 14:42:33;;;;;;;;;;;16.40;99.90;;;;;;5092834;28;19966;-68
2022/05/24 14:44:59;;;;;;;;;;;16.50;99.90;;;;;;5082539;28;19942;-74
2022/05/24 14:47:24;;;;;;;;;;;16.70;99.90;;;;;;5072441;28;19921;-71
2022/05/24 14:49:50;;;;;;;;;;;16.70;99.90;;;;;;5082379;28;19977;-72
2022/05/24 14:52:16;;;;;;;;;;;16.60;99.90;;;;;;5089969;28;19916;-76
2022/05/24 14:54:42;;;;;;;;;;;16.50;99.90;;;;;;5072312;28;20003;-69
2022/05/24 14:57:08;;;;;;;;;;;16.50;99.90;;;;;;5083323;28;20375;-72
2022/05/24 14:59:34;;;;;;;;;;;16.60;99.90;;;;;;5089864;28;19970;-74
2022/05/24 15:01:59;;;;;;;;;;;16.70;99.90;;;;;;5092799;28;19924;-73
2022/05/24 15:04:24;;;;;;;;;;;16.80;99.90;;;;;;5083096;28;19932;-73
2022/05/24 15:06:50;;;;;;;;;;;16.80;99.90;;;;;;5084478;28;19920;-72